Aérodrome :
LOGIN :

S'inscrire | Disclaimer

   EN    FR    IT 

 










Légende :    VFR   VFR Marginal   IFR   IFR Intensif   IFR Très Intensif
Visi : 
Plafond : 
>= 8 km
>= 3000ft
5 à 8 km
1000 à 3000 ft
1500m à 5 km
500 à 1000 ft
800 à 1500m
200 à 500 ft
< 800m
< 200 ft
Symboles :   Orages  Brouillard  Fortes neiges  Fortes précipitations  Vent > 20 kt
SIGMETs :   Divers  Orages  Givrage  Turbulence  Onde Orograph.  Cendres Volcan.






- Altitude de l'aérodrome : 14 ft
- Code IATA : RVK


ENRM - Rørvik , Ryum

DERNIER METAR :
  • 221250Z 28014KT 250V330 9999 7000NE SHRA FEW008 SCT012TCU BKN018 04/01 Q1023

METARs EXPIRÉS :
  • 221220Z 27011KT 240V300 9999 7000NE -SHRA FEW010 FEW015TCU BKN025 04/02 Q1022
  • 221150Z 28008KT 240V320 9999 VCSH FEW010 SCT017TCU SCT025 03/01 Q1022
  • 221120Z 29008KT 260V330 9999 -SHRA FEW010TCU SCT020 BKN030 04/02 Q1022
  • 221050Z 29009KT 260V340 9999 -SHRA FEW006 FEW010TCU BKN020 04/02 Q1022

Prévision TAF périmée.



MET'MAP, la Météo Aéronautique d'un coup d'oeil ! - Copyright ORBIFLY Décembre 2007 - Disclaimer

ORBIFLY MET'MAP TEAM :

Programmation & Développement : Alexandra Zaïnal
Sur une idée originale de : Baudouin d'Aumeries
Assistance à la programmation : Marc-Olivier Méhu
Soutien technique & logistique : Manuel Goepfert

Contact : metmap@orbifly.com




SOURCES & CREDITS :

   NOAA